Time;durP1;ratioP1;P1;durP2;ratioP2;P2;SDS_P1;SDS_P2;PMS_P1;PMS_P2;Temp;Humidity;BMP_temperature;BMP_pressure;BME280_temperature;BME280_humidity;BME280_pressure;Samples;Min_cycle;Max_cycle;Signal;HPM_P1;HPM_P2
2022/10/30 00:01:52;;;;;;;5.40;3.00;;;;;;;13.49;89.32;101611.94;5075596;28;20115;-84
2022/10/30 00:04:17;;;;;;;6.70;3.17;;;;;;;13.47;90.25;101605.88;5075493;28;20462;-84
2022/10/30 00:06:42;;;;;;;6.50;3.60;;;;;;;13.40;90.85;101603.34;5075489;28;20045;-84
2022/10/30 00:09:07;;;;;;;5.60;2.90;;;;;;;13.40;89.87;101618.97;5075538;28;20480;-85
2022/10/30 00:11:33;;;;;;;9.47;4.00;;;;;;;13.37;90.72;101611.19;5075938;28;20028;-84
2022/10/30 00:13:58;;;;;;;6.23;3.30;;;;;;;13.37;90.30;101612.94;5074465;28;20024;-84
2022/10/30 00:16:23;;;;;;;7.23;3.83;;;;;;;13.34;91.02;101611.22;5076034;28;20029;-85
2022/10/30 00:18:49;;;;;;;6.23;3.90;;;;;;;13.36;91.58;101614.69;5075514;28;20048;-84
2022/10/30 00:21:15;;;;;;;7.83;3.73;;;;;;;13.34;92.15;101607.78;5074928;28;20037;-84
2022/10/30 00:23:48;;;;;;;8.07;3.77;;;;;;;13.32;91.02;101607.78;5075741;28;20085;-85
2022/10/30 00:26:16;;;;;;;7.78;3.88;;;;;;;13.32;92.08;101610.38;5075342;28;20074;-85
2022/10/30 00:28:42;;;;;;;7.75;4.03;;;;;;;13.31;91.82;101618.25;5075109;28;20384;-84
2022/10/30 00:31:08;;;;;;;7.23;3.70;;;;;;;13.30;91.10;101612.16;5075423;28;20024;-84
2022/10/30 00:33:33;;;;;;;9.30;4.40;;;;;;;13.26;91.96;101610.50;5075692;28;20028;-84
2022/10/30 00:35:59;;;;;;;9.03;3.80;;;;;;;13.23;91.32;101608.75;5074302;28;20063;-84
2022/10/30 00:38:25;;;;;;;5.97;3.80;;;;;;;13.23;91.50;101606.16;5075699;28;20422;-84
2022/10/30 00:40:50;;;;;;;6.27;3.73;;;;;;;13.24;92.07;101604.44;5074981;28;20108;-84
2022/10/30 00:43:35;;;;;;;7.17;3.30;;;;;;;13.24;91.24;101607.03;5074635;28;20115;-85
2022/10/30 00:46:15;;;;;;;7.40;3.72;;;;;;;13.21;91.99;101599.25;5075202;28;20384;-84
2022/10/30 00:48:44;;;;;;;8.55;3.67;;;;;;;13.19;91.14;101601.88;5074469;28;20376;-84
2022/10/30 00:51:11;;;;;;;4.60;2.95;;;;;;;13.19;91.15;101598.41;5075046;28;20058;-84
2022/10/30 00:53:37;;;;;;;5.25;3.20;;;;;;;13.19;90.86;101601.88;5074989;28;20374;-84
2022/10/30 00:56:05;;;;;;;3.75;2.80;;;;;;;13.17;90.67;101600.19;5074368;28;20024;-84
2022/10/30 00:58:35;;;;;;;5.03;3.00;;;;;;;13.15;91.39;101588.94;5075292;28;20032;-84
2022/10/30 01:01:04;;;;;;;4.80;3.00;;;;;;;13.13;90.89;101602.84;5074777;28;20024;-84
2022/10/30 01:03:30;;;;;;;4.78;3.22;;;;;;;13.13;90.69;101601.97;5074070;28;20059;-84
2022/10/30 01:05:59;;;;;;;4.95;2.80;;;;;;;13.13;90.68;101599.34;5074115;28;20039;-85
2022/10/30 01:08:25;;;;;;;6.82;2.70;;;;;;;13.11;90.56;101595.94;5074432;28;20081;-84
2022/10/30 01:10:50;;;;;;;3.53;2.70;;;;;;;13.08;90.68;101596.81;5073974;28;20100;-84
2022/10/30 01:13:19;;;;;;;5.07;3.20;;;;;;;13.05;90.77;101604.69;5074612;28;20499;-84
2022/10/30 01:16:03;;;;;;;4.05;2.78;;;;;;;13.02;90.69;101599.50;5074604;28;20423;-84
2022/10/30 01:18:55;;;;;;;3.85;2.70;;;;;;;13.03;90.75;101596.03;5073716;28;20461;-84
2022/10/30 01:21:59;;;;;;;3.63;2.38;;;;;;;13.00;90.72;101603.03;5047085;28;20163;-84
2022/10/30 01:24:44;;;;;;;2.72;2.28;;;;;;;12.94;90.87;101609.19;5073687;28;20081;-84
2022/10/30 01:27:25;;;;;;;3.63;2.50;;;;;;;12.92;90.85;101608.34;5074446;28;20040;-84
2022/10/30 01:30:12;;;;;;;4.25;2.70;;;;;;;12.88;91.05;101614.47;5074276;28;20024;-84
2022/10/30 01:32:40;;;;;;;5.05;2.80;;;;;;;12.85;90.99;101604.94;5053627;28;20067;-84
2022/10/30 01:35:22;;;;;;;4.93;2.60;;;;;;;12.83;91.05;101604.09;5053924;28;20539;-84
2022/10/30 01:38:15;;;;;;;8.57;2.90;;;;;;;12.79;91.17;101611.09;5048485;28;20037;-84
2022/10/30 01:40:42;;;;;;;4.07;2.70;;;;;;;12.77;91.33;101612.00;5054515;28;20021;-84
2022/10/30 01:43:08;;;;;;;4.13;2.67;;;;;;;12.76;91.11;101621.53;5053976;28;20531;-84
2022/10/30 01:46:09;;;;;;;3.67;2.50;;;;;;;12.75;91.07;101619.81;5057941;28;20024;-84
2022/10/30 01:49:25;;;;;;;2.97;2.40;;;;;;;12.73;91.58;101612.91;5074171;28;20035;-84
2022/10/30 01:52:05;;;;;;;3.60;2.58;;;;;;;12.71;90.73;101620.75;5039085;28;20036;-83
2022/10/30 01:54:44;;;;;;;2.88;2.30;;;;;;;12.69;91.02;101614.69;5074009;28;20038;-84
2022/10/30 01:57:23;;;;;;;4.22;2.58;;;;;;;12.68;90.78;101612.97;5073753;28;20231;-84
2022/10/30 01:59:58;;;;;;;2.85;2.20;;;;;;;12.67;91.02;101613.84;5073266;28;20071;-84
2022/10/30 02:02:23;;;;;;;2.63;2.28;;;;;;;12.64;90.92;101621.69;5073696;28;20423;-84
2022/10/30 02:04:49;;;;;;;2.30;2.10;;;;;;;12.63;90.90;101622.56;5073595;28;20048;-84
2022/10/30 02:07:15;;;;;;;2.45;2.10;;;;;;;12.61;91.12;101624.34;5072948;28;20153;-84
2022/10/30 02:09:41;;;;;;;2.63;2.40;;;;;;;12.56;91.18;101628.72;5073431;28;20032;-84
2022/10/30 02:12:08;;;;;;;4.43;2.45;;;;;;;12.54;nan;101626.16;5073013;28;20029;-84
2022/10/30 02:14:36;;;;;;;;;;;;;;;12.53;91.24;101627.03;5073174;28;20031;-84
2022/10/30 02:17:04;;;;;;;5.53;2.70;;;;;;;12.50;91.28;101629.66;5073306;28;19912;-85
2022/10/30 02:19:29;;;;;;;3.92;2.70;;;;;;;12.47;92.06;101617.53;5073192;28;20027;-84
2022/10/30 02:21:55;;;;;;;3.67;2.60;;;;;;;12.45;91.54;101615.81;5072697;28;20103;-84
2022/10/30 02:24:20;;;;;;;3.77;2.50;;;;;;;12.40;91.53;101617.63;5073346;28;20024;-84
2022/10/30 02:26:45;;;;;;;3.23;2.50;;;;;;;12.38;91.50;101622.84;5072996;28;20028;-84
2022/10/30 02:29:11;;;;;;;4.23;2.20;;;;;;;12.37;91.86;101623.72;5072396;28;20044;-84
2022/10/30 02:31:36;;;;;;;3.20;2.30;;;;;;;12.33;91.67;101633.28;5073290;28;20469;-84
2022/10/30 02:34:02;;;;;;;5.30;2.83;;;;;;;12.31;92.63;101637.66;5072648;28;20029;-83
2022/10/30 02:36:27;;;;;;;6.27;3.23;;;;;;;12.27;92.87;101645.53;5073106;28;20381;-85
2022/10/30 02:38:54;;;;;;;6.03;3.50;;;;;;;12.23;93.47;101633.41;5072947;28;20119;-84
2022/10/30 02:41:20;;;;;;;6.93;3.15;;;;;;;12.18;92.43;101630.84;5072739;28;20029;-85
2022/10/30 02:43:45;;;;;;;4.97;3.10;;;;;;;12.13;92.54;101635.22;5073186;28;20021;-84
2022/10/30 02:46:10;;;;;;;4.53;3.03;;;;;;;12.12;92.25;101638.69;5072712;28;20091;-84
2022/10/30 02:48:36;;;;;;;4.23;2.60;;;;;;;12.10;92.50;101638.72;5072069;28;20013;-84
2022/10/30 02:51:02;;;;;;;4.03;2.87;;;;;;;12.07;93.32;101641.34;5072930;28;20483;-84
2022/10/30 02:53:28;;;;;;;4.40;2.92;;;;;;;12.03;93.55;101637.06;5073070;28;20021;-85
2022/10/30 02:55:54;;;;;;;5.53;3.07;;;;;;;11.98;94.59;101634.50;5071835;28;20035;-85
2022/10/30 02:58:19;;;;;;;4.03;3.10;;;;;;;11.95;93.65;101636.19;5072943;28;20043;-84
2022/10/30 03:00:44;;;;;;;6.07;3.30;;;;;;;11.92;94.34;101634.50;5073263;28;20036;-84
2022/10/30 03:03:10;;;;;;;5.13;3.33;;;;;;;11.90;94.84;101634.53;5072149;28;20559;-84
2022/10/30 03:05:35;;;;;;;5.67;3.17;;;;;;;11.90;95.09;101634.53;5073164;28;20468;-84
2022/10/30 03:08:00;;;;;;;7.40;3.70;;;;;;;11.87;95.95;101623.28;5054490;28;20021;-84
2022/10/30 03:10:26;;;;;;;8.07;4.07;;;;;;;11.85;95.51;101623.28;5071975;28;20526;-84
2022/10/30 03:12:51;;;;;;;9.77;4.33;;;;;;;11.82;96.13;101628.50;5072696;28;20056;-84
2022/10/30 03:15:16;;;;;;;6.37;3.57;;;;;;;11.81;95.72;101623.31;5072683;28;20028;-84
2022/10/30 03:17:41;;;;;;;7.03;3.60;;;;;;;11.81;95.69;101623.31;5072146;28;20366;-84
2022/10/30 03:20:07;;;;;;;7.13;4.10;;;;;;;11.79;95.82;101625.94;5072668;28;20544;-84
2022/10/30 03:22:32;;;;;;;5.87;3.53;;;;;;;11.78;95.54;101620.72;5072552;28;20032;-84
2022/10/30 03:24:58;;;;;;;4.97;3.07;;;;;;;11.76;95.69;101619.91;5071386;28;20370;-84
2022/10/30 03:27:23;;;;;;;7.00;3.70;;;;;;;11.72;97.08;101619.91;5072752;28;20025;-84
2022/10/30 03:29:48;;;;;;;6.87;3.93;;;;;;;11.71;96.63;101620.78;5073121;28;20111;-84
2022/10/30 03:32:14;;;;;;;5.73;3.50;;;;;;;11.71;96.21;101622.50;5075997;28;20032;-84
2022/10/30 03:34:39;;;;;;;6.93;3.90;;;;;;;11.71;96.62;101623.41;5076425;28;20036;-84
2022/10/30 03:37:04;;;;;;;6.17;3.30;;;;;;;11.72;96.41;101621.63;5076213;28;20028;-84
2022/10/30 03:39:29;;;;;;;6.27;3.40;;;;;;;11.72;96.75;101624.25;5076110;28;20155;-84
2022/10/30 03:41:55;;;;;;;5.50;3.30;;;;;;;11.73;97.42;101623.38;5076208;28;20016;-84
2022/10/30 03:44:20;;;;;;;7.53;3.60;;;;;;;11.74;97.67;101617.31;5076276;28;20107;-84
2022/10/30 03:46:45;;;;;;;7.03;3.50;;;;;;;11.74;97.49;101619.91;5075937;28;20028;-84
2022/10/30 03:49:10;;;;;;;6.93;3.50;;;;;;;11.76;96.95;101619.91;5075617;28;20119;-84
2022/10/30 03:51:36;;;;;;;4.43;3.03;;;;;;;11.75;96.91;101632.03;5075824;28;20029;-84
2022/10/30 03:54:01;;;;;;;5.23;2.87;;;;;;;11.75;96.50;101632.03;5075769;28;20048;-84
2022/10/30 03:56:26;;;;;;;7.13;3.50;;;;;;;11.77;97.56;101639.81;5076415;28;20028;-84
2022/10/30 03:58:51;;;;;;;8.33;4.20;;;;;;;11.76;98.73;101628.56;5074800;28;20074;-84
2022/10/30 04:01:17;;;;;;;8.10;4.43;;;;;;;11.77;98.40;101639.81;5076118;28;20380;-84
2022/10/30 04:03:42;;;;;;;6.67;3.60;;;;;;;11.77;96.86;101634.59;5075636;28;20049;-84
2022/10/30 04:06:07;;;;;;;4.73;3.10;;;;;;;11.78;96.53;101639.81;5075104;28;20469;-84
2022/10/30 04:08:33;;;;;;;4.13;2.73;;;;;;;11.80;96.28;101638.06;5076144;28;20107;-84
2022/10/30 04:10:58;;;;;;;3.27;2.70;;;;;;;11.81;96.07;101634.59;5075701;28;20067;-84
2022/10/30 04:13:23;;;;;;;3.57;2.70;;;;;;;11.82;95.59;101644.09;5075167;28;20168;-84
2022/10/30 04:15:49;;;;;;;3.50;2.53;;;;;;;11.83;95.37;101647.56;5076127;28;20059;-84
2022/10/30 04:18:16;;;;;;;4.43;2.53;;;;;;;11.83;95.33;101643.22;5076124;28;20056;-84
2022/10/30 04:20:41;;;;;;;2.63;2.30;;;;;;;11.83;95.30;101645.81;5075224;28;20028;-83
2022/10/30 04:23:09;;;;;;;3.17;2.40;;;;;;;11.80;95.38;101635.47;5075080;28;20028;-83
2022/10/30 04:25:34;;;;;;;3.50;2.67;;;;;;;11.79;95.14;101638.06;5075667;28;20539;-84
2022/10/30 04:28:00;;;;;;;4.10;2.53;;;;;;;11.77;95.47;101635.50;5074793;28;20080;-84
2022/10/30 04:30:26;;;;;;;3.38;2.30;;;;;;;11.76;95.52;101638.97;5075416;28;20032;-84
2022/10/30 04:32:56;;;;;;;3.50;2.47;;;;;;;11.75;95.17;101639.84;5075356;28;20025;-84
2022/10/30 04:35:26;;;;;;;4.40;2.50;;;;;;;11.75;95.46;101639.84;5074881;28;20040;-84
2022/10/30 04:37:53;;;;;;;3.47;2.30;;;;;;;11.74;95.27;101632.91;5075181;28;20045;-84
2022/10/30 04:40:20;;;;;;;7.05;3.22;;;;;;;11.69;97.15;101639.88;5075556;28;20016;-84
2022/10/30 04:42:47;;;;;;;6.72;3.63;;;;;;;11.65;98.05;101628.63;5074520;28;20449;-84
2022/10/30 04:45:12;;;;;;;6.22;3.25;;;;;;;11.63;97.27;101634.72;5075261;28;20021;-84
2022/10/30 04:47:37;;;;;;;6.27;3.30;;;;;;;11.58;96.85;101621.75;5075364;28;20472;-84
2022/10/30 04:50:03;;;;;;;5.23;3.00;;;;;;;11.58;96.25;101619.16;5074514;28;20103;-84
2022/10/30 04:52:28;;;;;;;4.33;2.90;;;;;;;11.57;96.08;101618.31;5075154;28;20020;-84
2022/10/30 04:54:53;;;;;;;3.87;2.50;;;;;;;11.56;96.39;101605.28;5074299;28;20480;-84
2022/10/30 04:57:19;;;;;;;3.83;2.63;;;;;;;11.53;96.99;101602.75;5075289;28;20017;-84
2022/10/30 04:59:44;;;;;;;3.00;2.40;;;;;;;11.50;96.44;101593.19;5075374;28;20469;-84
2022/10/30 05:02:09;;;;;;;3.80;2.63;;;;;;;11.54;95.97;101602.72;5074087;28;20066;-84
2022/10/30 05:04:34;;;;;;;2.50;2.30;;;;;;;11.57;96.15;101607.91;5074663;28;20052;-84
2022/10/30 05:07:01;;;;;;;3.53;2.50;;;;;;;11.61;96.01;101608.75;5074438;28;20020;-84
2022/10/30 05:09:26;;;;;;;3.85;2.20;;;;;;;11.64;95.98;101611.31;5074379;28;20024;-84
2022/10/30 05:11:51;;;;;;;3.13;2.03;;;;;;;11.67;96.15;101600.03;5074461;28;20031;-84
2022/10/30 05:14:16;;;;;;;2.87;2.30;;;;;;;11.69;95.97;101603.50;5074548;28;20037;-84
2022/10/30 05:16:42;;;;;;;4.10;2.37;;;;;;;11.70;95.83;101611.25;5073996;28;20465;-84
2022/10/30 05:19:07;;;;;;;2.30;2.00;;;;;;;11.70;96.06;101611.25;5074711;28;20070;-84
2022/10/30 05:21:32;;;;;;;3.27;2.30;;;;;;;11.72;96.63;101611.25;5075148;28;20099;-85
2022/10/30 05:23:58;;;;;;;2.40;2.00;;;;;;;11.71;96.43;101617.31;5073759;28;20427;-84
2022/10/30 05:26:23;;;;;;;2.80;2.10;;;;;;;11.71;95.97;101618.19;5074046;28;20465;-83
2022/10/30 05:28:48;;;;;;;4.50;2.73;;;;;;;11.68;97.30;101613.00;5073937;28;20020;-84
2022/10/30 05:31:13;;;;;;;7.10;2.90;;;;;;;11.63;97.04;101601.78;5073588;28;20505;-84
2022/10/30 05:33:39;;;;;;;4.33;2.63;;;;;;;11.64;96.33;101620.84;5074533;28;20024;-84
2022/10/30 05:36:04;;;;;;;4.50;2.70;;;;;;;11.63;96.05;101617.41;5073958;28;20032;-84
2022/10/30 05:38:29;;;;;;;2.60;2.40;;;;;;;11.64;95.98;101624.31;5073406;28;20040;-84
2022/10/30 05:40:55;;;;;;;5.10;2.80;;;;;;;11.65;95.54;101622.56;5073786;28;20029;-83
2022/10/30 05:43:20;;;;;;;3.90;2.80;;;;;;;11.65;95.66;101622.56;5074158;28;20158;-84
2022/10/30 05:45:48;;;;;;;4.53;2.57;;;;;;;11.64;95.44;101626.03;5073624;28;20020;-84
2022/10/30 05:48:13;;;;;;;2.92;2.40;;;;;;;11.59;95.60;101619.16;5074017;28;20021;-84
2022/10/30 05:50:38;;;;;;;3.07;2.30;;;;;;;11.56;95.49;101619.16;5073378;28;20029;-84
2022/10/30 05:53:04;;;;;;;2.60;2.33;;;;;;;11.54;95.50;101618.31;5072462;28;20032;-84
2022/10/30 05:55:30;;;;;;;2.47;2.27;;;;;;;11.52;95.56;101617.47;5073731;28;20032;-84
2022/10/30 05:57:59;;;;;;;3.70;2.47;;;;;;;11.51;95.37;101617.47;5073537;28;20486;-84
2022/10/30 06:00:26;;;;;;;2.42;2.15;;;;;;;11.50;95.47;101618.34;5073520;28;20098;-84
2022/10/30 06:02:51;;;;;;;3.70;2.10;;;;;;;11.47;95.23;101621.84;5073511;28;20029;-84
2022/10/30 06:05:16;;;;;;;2.17;1.97;;;;;;;11.44;95.56;101616.66;5072783;28;20612;-84
2022/10/30 06:07:42;;;;;;;4.07;2.47;;;;;;;11.40;95.36;101615.81;5073851;28;20616;-84
2022/10/30 06:10:08;;;;;;;3.10;2.57;;;;;;;11.40;95.39;101617.53;5073151;28;20538;-84
2022/10/30 06:12:34;;;;;;;3.30;2.63;;;;;;;11.38;95.42;101622.75;5073177;28;20028;-84
2022/10/30 06:14:59;;;;;;;2.90;2.33;;;;;;;11.36;95.63;101614.09;5073183;28;20170;-84
2022/10/30 06:17:24;;;;;;;3.20;2.33;;;;;;;11.33;95.24;101624.50;5073217;28;20111;-85
2022/10/30 06:19:49;;;;;;;2.50;2.30;;;;;;;11.32;95.23;101624.53;5072698;28;20017;-85
2022/10/30 06:22:15;;;;;;;3.47;2.47;;;;;;;11.28;95.44;101621.94;5073550;28;20465;-84
2022/10/30 06:24:40;;;;;;;3.27;2.30;;;;;;;11.21;95.39;101624.56;5073123;28;20028;-83
2022/10/30 06:27:05;;;;;;;3.13;2.23;;;;;;;11.13;95.43;101617.69;5072229;28;20017;-84
2022/10/30 06:29:30;;;;;;;3.83;2.43;;;;;;;11.11;95.43;101616.81;5073361;28;20020;-84
2022/10/30 06:31:56;;;;;;;2.80;2.40;;;;;;;11.09;95.80;101620.31;5072422;28;20029;-82
2022/10/30 06:34:21;;;;;;;4.20;2.60;;;;;;;11.06;95.63;101613.41;5072528;28;20103;-83
2022/10/30 06:36:46;;;;;;;2.63;2.33;;;;;;;11.06;95.50;101617.72;5073144;28;20024;-82
2022/10/30 06:39:12;;;;;;;4.20;2.60;;;;;;;11.03;95.65;101616.00;5072991;28;20025;-81
2022/10/30 06:41:37;;;;;;;3.47;2.43;;;;;;;11.03;95.33;101607.38;5072305;28;20053;-82
2022/10/30 06:44:02;;;;;;;3.53;2.50;;;;;;;11.03;95.45;101612.56;5072880;28;20028;-81
2022/10/30 06:46:28;;;;;;;2.97;2.57;;;;;;;11.02;95.20;101613.44;5072908;28;20020;-82
2022/10/30 06:48:53;;;;;;;3.57;2.67;;;;;;;11.03;95.53;101612.56;5071756;28;20041;-81
2022/10/30 06:51:19;;;;;;;4.20;2.53;;;;;;;11.02;95.56;101611.69;5073180;28;20043;-81
2022/10/30 06:53:44;;;;;;;3.80;2.57;;;;;;;11.03;95.60;101617.75;5072850;28;20047;-81
2022/10/30 06:56:09;;;;;;;5.67;2.60;;;;;;;11.02;95.33;101611.69;5071877;28;20040;-81
2022/10/30 06:58:37;;;;;;;5.30;2.90;;;;;;;11.02;95.39;101614.28;5073212;28;20028;-81
2022/10/30 07:01:04;;;;;;;4.35;2.50;;;;;;;11.00;95.25;101605.63;5072745;28;20078;-81
2022/10/30 07:03:30;;;;;;;;;;;;;;;11.00;95.51;101608.22;5072247;28;20078;-82
2022/10/30 07:05:56;;;;;;;3.22;2.50;;;;;;;10.98;95.59;101607.38;5071974;28;19912;-82
2022/10/30 07:08:21;;;;;;;2.93;2.30;;;;;;;10.96;95.33;101598.75;5072194;28;20023;-83
2022/10/30 07:10:46;;;;;;;3.53;2.50;;;;;;;10.96;95.36;101588.34;5072607;28;20493;-82
2022/10/30 07:13:11;;;;;;;2.83;2.40;;;;;;;10.99;95.68;101593.50;5072450;28;20029;-83
2022/10/30 07:15:37;;;;;;;4.10;2.60;;;;;;;11.03;95.75;101604.78;5071337;28;20037;-83
2022/10/30 07:18:03;;;;;;;3.87;2.50;;;;;;;11.06;95.74;101602.13;5072394;28;20399;-82
2022/10/30 07:20:30;;;;;;;4.03;2.50;;;;;;;11.08;95.93;101598.69;5072121;28;20028;-82
2022/10/30 07:22:56;;;;;;;3.33;2.50;;;;;;;11.13;95.73;101601.25;5071754;28;20056;-82
2022/10/30 07:25:21;;;;;;;3.57;2.60;;;;;;;11.16;95.80;101606.41;5072550;28;20040;-82
2022/10/30 07:27:48;;;;;;;3.33;2.33;;;;;;;11.18;95.95;101604.66;5072443;28;20025;-82
2022/10/30 07:30:16;;;;;;;3.53;2.38;;;;;;;11.19;95.78;101611.59;5068203;28;20036;-82
2022/10/30 07:32:41;;;;;;;2.70;2.35;;;;;;;11.22;95.91;101610.72;5071910;28;20112;-83
2022/10/30 07:35:08;;;;;;;2.73;2.40;;;;;;;11.25;95.99;101605.50;5071101;28;20111;-83
2022/10/30 07:37:33;;;;;;;2.20;2.00;;;;;;;11.28;96.25;101615.88;5067885;28;20051;-83
2022/10/30 07:39:59;;;;;;;2.77;2.30;;;;;;;11.28;96.03;101614.13;5072042;28;20075;-83
2022/10/30 07:42:24;;;;;;;2.63;2.27;;;;;;;11.31;95.87;101610.69;5071609;28;20044;-82
2022/10/30 07:44:49;;;;;;;2.87;2.40;;;;;;;11.35;96.38;101614.13;5070089;28;20024;-82
2022/10/30 07:47:14;;;;;;;2.37;2.13;;;;;;;11.40;96.46;101609.72;5070692;28;20161;-82
2022/10/30 07:49:40;;;;;;;3.50;2.60;;;;;;;11.42;97.58;101606.28;5070503;28;20082;-83
2022/10/30 07:52:05;;;;;;;3.73;2.60;;;;;;;11.43;97.50;101604.53;5069507;28;20094;-82
2022/10/30 07:54:30;;;;;;;4.43;2.90;;;;;;;11.43;98.14;101602.78;5070451;28;20031;-81
2022/10/30 07:56:57;;;;;;;4.30;2.80;;;;;;;11.46;98.50;101604.50;5070572;28;20025;-82
2022/10/30 07:59:23;;;;;;;;;;;;;;;11.50;98.12;101613.16;5071379;28;20480;-82
2022/10/30 08:01:48;;;;;;;4.00;2.67;;;;;;;11.54;97.92;101613.13;5072290;28;19981;-83
2022/10/30 08:04:14;;;;;;;4.23;2.30;;;;;;;11.58;98.00;101613.94;5051923;28;20150;-82
2022/10/30 08:06:39;;;;;;;3.67;2.50;;;;;;;11.66;98.40;101613.91;5051309;28;20457;-82
2022/10/30 08:09:04;;;;;;;3.87;2.53;;;;;;;11.73;98.90;101606.03;5051893;28;20025;-82
2022/10/30 08:11:30;;;;;;;4.17;2.47;;;;;;;11.82;99.01;101605.09;5052385;28;20089;-82
2022/10/30 08:13:55;;;;;;;3.13;2.40;;;;;;;11.91;99.59;101601.56;5061233;28;20491;-82
2022/10/30 08:16:20;;;;;;;5.70;2.87;;;;;;;12.02;100.00;101604.09;5073811;28;20017;-82
2022/10/30 08:18:45;;;;;;;5.20;3.20;;;;;;;12.12;100.00;101597.06;5075306;28;20516;-82
2022/10/30 08:21:11;;;;;;;4.60;2.80;;;;;;;12.20;100.00;101593.50;5075426;28;20033;-82
2022/10/30 08:23:36;;;;;;;4.37;2.80;;;;;;;12.31;100.00;101584.72;5075450;28;20120;-83
2022/10/30 08:26:01;;;;;;;3.10;2.50;;;;;;;12.41;100.00;101582.91;5074770;28;20038;-83
2022/10/30 08:28:27;;;;;;;3.50;2.60;;;;;;;12.51;100.00;101593.19;5075852;28;20086;-83
2022/10/30 08:30:52;;;;;;;3.43;2.60;;;;;;;12.61;100.00;101598.31;5075134;28;20028;-83
2022/10/30 08:33:19;;;;;;;3.20;2.47;;;;;;;12.73;100.00;101605.94;5074799;28;20058;-83
2022/10/30 08:35:55;;;;;;;4.68;2.35;;;;;;;12.83;99.81;101615.38;5075509;28;20269;-83
2022/10/30 08:38:21;;;;;;;2.97;2.13;;;;;;;12.94;99.45;101603.97;5075542;28;20354;-81
2022/10/30 08:40:46;;;;;;;2.13;1.80;;;;;;;13.04;99.45;101609.91;5074522;28;20035;-83
2022/10/30 08:43:11;;;;;;;2.93;2.27;;;;;;;13.12;100.00;101603.72;5074901;28;20028;-84
2022/10/30 08:45:37;;;;;;;3.27;2.30;;;;;;;13.24;99.91;101594.00;5075520;28;20036;-85
2022/10/30 08:48:04;;;;;;;4.10;2.60;;;;;;;13.33;99.72;101591.25;5074490;28;20060;-85
2022/10/30 08:50:30;;;;;;;3.13;2.28;;;;;;;13.41;99.08;101599.00;5075034;28;20403;-85
2022/10/30 08:52:59;;;;;;;2.47;2.25;;;;;;;13.49;98.74;101604.09;5075147;28;20055;-85
2022/10/30 08:55:24;;;;;;;2.40;2.20;;;;;;;13.54;98.61;101604.88;5074490;28;20040;-84
2022/10/30 08:57:50;;;;;;;2.57;2.10;;;;;;;13.63;98.80;101599.50;5074802;28;20024;-84
2022/10/30 09:00:15;;;;;;;1.93;1.80;;;;;;;13.72;98.52;101604.59;5075075;28;20107;-85
2022/10/30 09:02:40;;;;;;;2.40;1.90;;;;;;;13.84;97.99;101606.13;5074014;28;20029;-85
2022/10/30 09:05:07;;;;;;;1.80;1.70;;;;;;;13.97;98.02;101606.78;5074652;28;20039;-85
2022/10/30 09:07:33;;;;;;;1.80;1.70;;;;;;;14.09;97.92;101604.84;5075116;28;20032;-85
2022/10/30 09:09:59;;;;;;;3.55;1.95;;;;;;;14.19;97.70;101604.66;5073946;28;20020;-84
2022/10/30 09:12:24;;;;;;;2.00;1.80;;;;;;;14.34;97.81;101597.44;5075122;28;20032;-85
2022/10/30 09:14:49;;;;;;;4.63;2.37;;;;;;;14.48;97.58;101599.78;5074655;28;20024;-84
2022/10/30 09:17:15;;;;;;;2.93;2.37;;;;;;;14.66;97.69;101593.34;5073769;28;20025;-85
2022/10/30 09:19:40;;;;;;;7.13;3.40;;;;;;;14.86;96.66;101592.09;5074700;28;20415;-85
2022/10/30 09:22:05;;;;;;;6.53;3.80;;;;;;;15.08;97.04;101579.41;5073453;28;20118;-85
2022/10/30 09:24:31;;;;;;;7.77;3.83;;;;;;;15.32;96.83;101580.59;5074872;28;20107;-85
2022/10/30 09:26:56;;;;;;;8.60;4.20;;;;;;;15.53;95.24;101575.75;5073875;28;20051;-85
2022/10/30 09:29:22;;;;;;;7.50;4.00;;;;;;;15.72;94.59;101578.78;5072949;28;20020;-85
2022/10/30 09:31:47;;;;;;;9.43;4.30;;;;;;;15.88;94.06;101577.50;5074630;28;20480;-85
2022/10/30 09:34:12;;;;;;;6.60;3.83;;;;;;;15.96;93.50;101586.94;5073986;28;20024;-85
2022/10/30 09:36:38;;;;;;;6.33;3.70;;;;;;;15.98;93.77;101582.53;5073935;28;20028;-85
2022/10/30 09:39:03;;;;;;;6.37;3.40;;;;;;;16.00;93.73;101588.56;5074358;28;20025;-85
2022/10/30 09:42:02;;;;;;;4.03;2.97;;;;;;;16.05;92.61;101589.31;5074571;28;20033;-85
2022/10/30 09:44:59;;;;;;;9.50;4.28;;;;;;;16.16;91.76;101582.03;5073319;28;20137;-85
2022/10/30 09:48:13;;;;;;;7.03;4.20;;;;;;;16.28;91.95;101585.22;5049179;28;20485;-85
2022/10/30 09:50:58;;;;;;;4.85;3.42;;;;;;;16.40;92.55;101594.47;5070196;28;20566;-85
2022/10/30 09:53:37;;;;;;;4.75;3.15;;;;;;;16.46;92.16;101604.81;5074240;28;20024;-85
2022/10/30 09:56:14;;;;;;;3.63;2.60;;;;;;;16.42;92.05;101611.91;5073841;28;20032;-85
2022/10/30 09:59:13;;;;;;;6.13;3.20;;;;;;;16.40;91.56;101616.31;5073209;28;20044;-85
2022/10/30 10:02:05;;;;;;;4.00;2.67;;;;;;;16.38;91.77;101618.09;5073651;28;20032;-85
2022/10/30 10:04:42;;;;;;;3.10;2.40;;;;;;;16.36;91.98;101628.63;5041525;28;20783;-85
2022/10/30 10:07:21;;;;;;;2.97;2.30;;;;;;;16.36;92.00;101619.91;5073375;28;20507;-85
2022/10/30 10:09:51;;;;;;;3.25;2.03;;;;;;;16.34;91.41;101624.31;5073746;28;20055;-85
2022/10/30 10:12:32;;;;;;;3.33;2.47;;;;;;;16.34;92.05;101621.69;5072892;28;20388;-85
2022/10/30 10:15:03;;;;;;;2.15;1.95;;;;;;;16.39;91.95;101606.72;5073555;28;20039;-85
2022/10/30 10:17:34;;;;;;;3.20;2.20;;;;;;;16.50;91.59;101604.66;5074190;28;20346;-85
2022/10/30 10:20:01;;;;;;;3.88;2.30;;;;;;;16.65;91.71;101599.91;5072308;28;20024;-85
2022/10/30 10:22:41;;;;;;;3.53;2.38;;;;;;;16.75;90.45;101603.09;5073222;28;20029;-85
2022/10/30 10:25:13;;;;;;;2.60;2.00;;;;;;;16.88;91.04;101603.63;5073388;28;20028;-85
2022/10/30 10:27:56;;;;;;;2.00;1.90;;;;;;;16.99;90.87;101604.19;5072636;28;20040;-85
2022/10/30 10:30:23;;;;;;;2.35;2.05;;;;;;;17.10;89.70;101601.22;5073223;28;20376;-85
2022/10/30 10:33:26;;;;;;;3.88;2.30;;;;;;;17.18;88.77;101599.22;5072328;28;20063;-85
2022/10/30 10:36:34;;;;;;;3.42;2.60;;;;;;;17.33;88.58;101590.03;4991541;28;20034;-85
2022/10/30 10:39:14;;;;;;;2.50;2.30;;;;;;;17.41;88.42;101595.88;4991271;28;20038;-84
2022/10/30 10:41:45;;;;;;;3.47;2.30;;;;;;;17.49;87.96;101597.41;5060342;28;20111;-86
2022/10/30 10:44:29;;;;;;;3.03;2.20;;;;;;;17.51;87.34;101588.56;5073427;28;20025;-87
2022/10/30 10:47:14;;;;;;;2.78;2.28;;;;;;;17.55;84.31;101594.59;5071904;28;20028;-86
2022/10/30 10:49:54;;;;;;;4.35;2.85;;;;;;;17.59;86.18;101589.19;5073206;28;20376;-86
2022/10/30 10:52:24;;;;;;;4.03;2.25;;;;;;;17.66;87.24;101597.72;5073372;28;20025;-86
2022/10/30 10:54:57;;;;;;;3.58;2.40;;;;;;;17.71;86.24;101595.78;5071773;28;20024;-86
2022/10/30 10:57:31;;;;;;;2.20;2.00;;;;;;;17.77;86.79;101596.50;5073108;28;20412;-86
2022/10/30 11:00:16;;;;;;;2.15;1.80;;;;;;;17.81;84.25;101598.09;5072664;28;20070;-86
2022/10/30 11:03:02;;;;;;;2.08;1.88;;;;;;;17.83;86.52;101596.28;5072109;28;20027;-86
2022/10/30 11:05:45;;;;;;;2.20;2.00;;;;;;;17.86;86.34;101601.44;5072775;28;20047;-86
2022/10/30 11:08:18;;;;;;;2.20;1.98;;;;;;;17.87;85.71;101604.00;5071929;28;20029;-87
2022/10/30 11:10:50;;;;;;;2.00;1.80;;;;;;;17.92;86.24;101593.34;5073148;28;20035;-86
2022/10/30 11:13:15;;;;;;;2.83;2.00;;;;;;;17.97;85.41;101583.56;5072967;28;20036;-87
2022/10/30 11:15:56;;;;;;;1.83;1.70;;;;;;;18.02;85.64;101588.66;5072374;28;20024;-87
2022/10/30 11:18:22;;;;;;;1.90;1.80;;;;;;;18.04;84.92;101590.31;5073053;28;20104;-86
2022/10/30 11:21:07;;;;;;;3.57;1.90;;;;;;;18.08;84.80;101582.34;5072641;28;20071;-85
2022/10/30 11:23:42;;;;;;;2.47;1.70;;;;;;;18.08;83.68;101575.31;5072252;28;20029;-86
2022/10/30 11:26:16;;;;;;;6.57;2.83;;;;;;;18.13;79.84;101570.75;5072574;28;20113;-86
2022/10/30 11:28:50;;;;;;;5.25;2.60;;;;;;;18.19;82.79;101575.78;5071386;28;20031;-86
2022/10/30 11:31:33;;;;;;;4.35;2.53;;;;;;;18.21;82.47;101575.75;5072812;28;20032;-86
2022/10/30 11:33:58;;;;;;;4.53;2.60;;;;;;;18.21;82.23;101578.38;5072090;28;20052;-84
2022/10/30 11:36:25;;;;;;;5.20;2.70;;;;;;;18.21;83.10;101571.34;5071977;28;20059;-86